Time;durP1;ratioP1;P1;durP2;ratioP2;P2;SDS_P1;SDS_P2;PMS_P1;PMS_P2;Temp;Humidity;BMP_temperature;BMP_pressure;BME280_temperature;BME280_humidity;BME280_pressure;Samples;Min_cycle;Max_cycle;Signal;HPM_P1;HPM_P2
2020/12/22 00:02:24;;;;;;;19.82;8.60;;;;;;;-1.04;69.06;102059.77;1716300;83;21584;-67
2020/12/22 00:04:51;;;;;;;18.57;10.23;;;;;;;-1.01;69.10;102061.82;1716343;83;21168;-67
2020/12/22 00:07:19;;;;;;;17.02;9.00;;;;;;;-0.97;69.12;102059.36;1716310;83;21458;-67
2020/12/22 00:09:48;;;;;;;15.50;7.22;;;;;;;-0.92;68.99;102063.62;1716387;83;21179;-67
2020/12/22 00:12:16;;;;;;;16.05;8.60;;;;;;;-0.93;68.87;102064.09;1715985;83;21167;-67
2020/12/22 00:14:44;;;;;;;18.87;8.28;;;;;;;-0.99;68.93;102067.12;1716369;83;22042;-69
2020/12/22 00:17:12;;;;;;;17.40;9.68;;;;;;;-1.01;68.90;102064.51;1716447;83;21412;-68
2020/12/22 00:19:39;;;;;;;17.27;9.45;;;;;;;-1.01;68.98;102059.12;1716487;83;21414;-67
2020/12/22 00:22:07;;;;;;;21.85;8.88;;;;;;;-0.97;69.02;102063.87;1716417;83;21438;-68
2020/12/22 00:24:34;;;;;;;17.95;9.33;;;;;;;-0.96;69.06;102057.53;1716593;83;21175;-67
2020/12/22 00:27:02;;;;;;;17.85;8.10;;;;;;;-0.92;69.01;102056.89;1716514;83;21879;-67
2020/12/22 00:29:30;;;;;;;16.15;9.08;;;;;;;-0.93;69.07;102055.16;1716540;83;21148;-67
2020/12/22 00:32:00;;;;;;;15.85;8.93;;;;;;;-0.94;68.97;102052.94;1690248;83;21987;-67
2020/12/22 00:34:29;;;;;;;17.20;8.35;;;;;;;-0.99;68.87;102043.77;1716592;83;21199;-66
2020/12/22 00:36:59;;;;;;;14.85;8.05;;;;;;;-1.01;69.09;102044.34;1716616;83;21188;-67
2020/12/22 00:39:27;;;;;;;19.27;7.95;;;;;;;-0.99;69.05;102041.56;1716821;83;21179;-69
2020/12/22 00:41:56;;;;;;;18.45;9.38;;;;;;;-0.97;69.02;102036.49;1716557;83;21159;-66
2020/12/22 00:44:24;;;;;;;16.85;7.85;;;;;;;-0.97;68.88;102035.14;1689994;83;21143;-67
2020/12/22 00:46:52;;;;;;;17.25;8.80;;;;;;;-0.92;68.89;102035.38;1716702;83;21934;-67
2020/12/22 00:49:21;;;;;;;18.70;8.48;;;;;;;-0.92;68.71;102025.48;1716806;83;21272;-68
2020/12/22 00:51:49;;;;;;;18.23;8.78;;;;;;;-0.95;68.70;102021.61;1716693;83;21155;-68
2020/12/22 00:54:17;;;;;;;21.75;9.68;;;;;;;-0.95;68.70;102024.30;1716589;83;21975;-66
2020/12/22 00:56:48;;;;;;;18.60;8.70;;;;;;;-0.94;68.80;102034.58;1716742;83;21319;-66
2020/12/22 00:59:17;;;;;;;21.68;9.58;;;;;;;-0.91;68.61;102026.34;1716618;83;21166;-67
2020/12/22 01:01:45;;;;;;;25.05;9.88;;;;;;;-0.89;68.58;102022.61;1716497;83;22053;-66
2020/12/22 01:04:12;;;;;;;24.45;10.20;;;;;;;-0.85;68.53;102018.80;1716440;83;21294;-68
2020/12/22 01:06:39;;;;;;;19.50;8.90;;;;;;;-0.82;68.50;102010.56;1716535;83;21161;-67
2020/12/22 01:09:07;;;;;;;23.35;10.82;;;;;;;-0.76;68.46;102018.77;1716546;83;21455;-68
2020/12/22 01:11:37;;;;;;;26.15;9.83;;;;;;;-0.73;68.32;102020.81;1716613;83;21509;-69
2020/12/22 01:14:05;;;;;;;22.37;11.20;;;;;;;-0.71;68.20;102016.69;1716683;83;21171;-68
2020/12/22 01:16:33;;;;;;;24.20;10.23;;;;;;;-0.71;68.27;102024.77;1716613;83;21176;-68
2020/12/22 01:19:00;;;;;;;24.32;11.20;;;;;;;-0.69;68.20;102029.11;1716493;83;21548;-66
2020/12/22 01:21:28;;;;;;;29.57;12.20;;;;;;;-0.67;68.15;102022.30;1716605;83;21740;-67
2020/12/22 01:23:55;;;;;;;30.32;12.70;;;;;;;-0.70;68.05;102029.19;1716609;83;21457;-67
2020/12/22 01:26:24;;;;;;;27.25;13.20;;;;;;;-0.73;68.13;102022.63;1716517;83;21494;-68
2020/12/22 01:28:55;;;;;;;27.85;11.73;;;;;;;-0.69;68.23;102019.69;1716870;83;21889;-66
2020/12/22 01:31:30;;;;;;;29.70;12.33;;;;;;;-0.65;68.11;102019.94;1716543;83;21448;-67
2020/12/22 01:33:58;;;;;;;27.52;11.95;;;;;;;-0.67;68.05;102012.87;1716529;83;21333;-67
2020/12/22 01:36:26;;;;;;;31.40;12.65;;;;;;;-0.71;68.10;102005.45;1716609;83;21132;-67
2020/12/22 01:38:54;;;;;;;25.68;11.65;;;;;;;-0.68;68.08;102009.31;1716736;83;21167;-67
2020/12/22 01:41:21;;;;;;;28.57;10.50;;;;;;;-0.65;67.98;102010.52;1716466;83;21450;-64
2020/12/22 01:44:14;;;;;;;26.45;10.80;;;;;;;-0.67;67.77;102007.48;1716626;83;21155;-68
2020/12/22 01:46:47;;;;;;;26.52;9.95;;;;;;;-0.73;67.60;102010.05;1716709;83;21187;-67
2020/12/22 01:49:25;;;;;;;24.65;11.95;;;;;;;-0.80;67.51;102015.86;1716456;83;21158;-67
2020/12/22 01:51:55;;;;;;;31.50;11.68;;;;;;;-0.83;67.53;102016.03;1716608;83;21397;-67
2020/12/22 01:54:23;;;;;;;24.05;10.82;;;;;;;-0.87;67.58;102010.42;1716514;83;21207;-67
2020/12/22 01:56:51;;;;;;;25.23;10.08;;;;;;;-0.88;67.69;102012.25;1716584;83;21156;-67
2020/12/22 01:59:18;;;;;;;26.65;11.68;;;;;;;-0.85;67.62;102016.11;1716629;83;21301;-67
2020/12/22 02:01:49;;;;;;;21.20;8.18;;;;;;;-0.85;67.72;101997.75;1714370;83;21310;-67
2020/12/22 02:04:16;;;;;;;28.75;11.40;;;;;;;-0.80;67.59;101998.37;1714208;83;21213;-67
2020/12/22 02:06:44;;;;;;;21.35;9.90;;;;;;;-0.79;67.52;102006.83;1676158;84;21457;-67
2020/12/22 02:09:11;;;;;;;23.45;10.08;;;;;;;-0.78;67.47;101998.67;1674781;85;21840;-67
2020/12/22 02:11:39;;;;;;;24.40;10.98;;;;;;;-0.77;67.31;101999.06;1708952;84;21531;-67
2020/12/22 02:14:09;;;;;;;22.82;9.38;;;;;;;-0.77;67.28;101993.67;1708818;84;22000;-68
2020/12/22 02:16:37;;;;;;;30.57;13.28;;;;;;;-0.80;67.30;101989.81;1708927;84;21285;-67
2020/12/22 02:19:06;;;;;;;23.57;10.03;;;;;;;-0.83;67.36;101988.64;1705609;83;21175;-68
2020/12/22 02:21:34;;;;;;;25.57;11.43;;;;;;;-0.84;67.39;101988.25;1708890;84;21146;-68
2020/12/22 02:24:01;;;;;;;24.98;9.83;;;;;;;-0.88;67.37;101993.41;1708909;84;21460;-68
2020/12/22 02:26:29;;;;;;;27.62;12.37;;;;;;;-0.90;67.47;101995.80;1708846;83;21162;-67
2020/12/22 02:28:56;;;;;;;26.75;11.33;;;;;;;-0.91;67.55;101995.41;1708986;84;21496;-67
2020/12/22 02:31:25;;;;;;;27.77;12.20;;;;;;;-0.90;67.52;101992.63;1709156;83;21158;-67
2020/12/22 02:33:53;;;;;;;29.18;11.35;;;;;;;-0.86;67.60;101994.67;1708919;84;21167;-67
2020/12/22 02:36:20;;;;;;;28.87;12.30;;;;;;;-0.84;67.59;101990.94;1709014;83;21554;-68
2020/12/22 02:38:48;;;;;;;30.55;12.60;;;;;;;-0.82;67.54;101989.03;1709071;83;21403;-67
2020/12/22 02:41:16;;;;;;;28.17;11.10;;;;;;;-0.84;67.56;101992.77;1708808;83;21934;-67
2020/12/22 02:43:43;;;;;;;26.00;10.95;;;;;;;-0.83;67.73;101998.53;1708896;84;21135;-68
2020/12/22 02:46:12;;;;;;;22.85;9.68;;;;;;;-0.81;67.68;101987.20;1709001;83;21269;-68
2020/12/22 02:48:39;;;;;;;29.00;11.25;;;;;;;-0.82;67.73;101994.89;1708929;84;21163;-67
2020/12/22 02:51:06;;;;;;;24.92;9.50;;;;;;;-0.79;67.63;101991.55;1708799;84;21929;-68
2020/12/22 02:53:33;;;;;;;27.27;11.28;;;;;;;-0.79;67.56;101995.59;1709005;84;21170;-68
2020/12/22 02:56:01;;;;;;;27.20;11.38;;;;;;;-0.78;67.39;101988.38;1708905;84;21322;-68
2020/12/22 02:58:29;;;;;;;26.80;10.48;;;;;;;-0.80;67.30;101988.47;1708946;84;21469;-68
2020/12/22 03:00:56;;;;;;;31.52;11.97;;;;;;;-0.79;67.33;101989.34;1708943;83;21214;-67
2020/12/22 03:03:24;;;;;;;28.87;11.20;;;;;;;-0.76;67.37;101991.86;1708757;84;21930;-66
2020/12/22 03:05:51;;;;;;;28.32;11.65;;;;;;;-0.74;67.44;101995.33;1703424;83;21624;-69
2020/12/22 03:08:19;;;;;;;26.05;11.15;;;;;;;-0.72;67.34;101986.69;1654679;85;21196;-69
2020/12/22 03:10:46;;;;;;;25.48;9.65;;;;;;;-0.74;67.30;101993.51;1654772;85;21200;-67
2020/12/22 03:13:14;;;;;;;25.62;11.40;;;;;;;-0.76;67.30;101981.95;1654526;86;21439;-67
2020/12/22 03:15:41;;;;;;;23.50;9.05;;;;;;;-0.74;67.30;101980.53;1654885;85;21180;-68
2020/12/22 03:18:09;;;;;;;23.52;10.43;;;;;;;-0.72;67.27;101978.62;1654358;86;21300;-67
2020/12/22 03:20:37;;;;;;;26.77;10.20;;;;;;;-0.71;67.26;101978.53;1654786;85;21302;-68
2020/12/22 03:23:04;;;;;;;25.80;10.13;;;;;;;-0.76;67.20;101960.91;1654740;86;21180;-68
2020/12/22 03:25:31;;;;;;;30.05;11.15;;;;;;;-0.78;67.19;101973.58;1654673;86;21188;-68
2020/12/22 03:27:59;;;;;;;28.12;10.90;;;;;;;-0.79;67.41;101963.77;1654885;85;21543;-68
2020/12/22 03:30:26;;;;;;;28.17;11.40;;;;;;;-0.78;67.56;101966.38;1654784;85;22031;-68
2020/12/22 03:32:53;;;;;;;29.65;11.90;;;;;;;-0.75;67.63;101965.33;1654729;85;21860;-67
2020/12/22 03:35:21;;;;;;;26.42;11.03;;;;;;;-0.74;67.70;101961.69;1654854;85;21224;-69
2020/12/22 03:37:48;;;;;;;24.00;10.82;;;;;;;-0.73;67.61;101966.11;1654576;86;22010;-67
2020/12/22 03:40:16;;;;;;;26.00;10.10;;;;;;;-0.76;67.70;101973.89;1654557;85;21849;-67
2020/12/22 03:42:44;;;;;;;25.80;11.78;;;;;;;-0.75;67.81;101965.33;1654557;85;21489;-67
2020/12/22 03:45:11;;;;;;;26.60;12.15;;;;;;;-0.71;67.90;101972.28;1654439;86;21224;-67
2020/12/22 03:47:39;;;;;;;24.95;9.40;;;;;;;-0.65;67.88;101967.93;1654719;85;21164;-68
2020/12/22 03:50:08;;;;;;;28.73;12.07;;;;;;;-0.62;67.77;101966.88;1652970;86;21216;-68
2020/12/22 03:52:37;;;;;;;25.60;10.70;;;;;;;-0.62;67.69;101973.14;1654818;86;21430;-68
2020/12/22 03:55:05;;;;;;;29.60;12.53;;;;;;;-0.61;67.68;101961.41;1654622;85;21314;-70
2020/12/22 03:57:32;;;;;;;28.55;11.38;;;;;;;-0.63;67.60;101961.98;1654533;86;21212;-68
2020/12/22 04:00:00;;;;;;;27.35;11.83;;;;;;;-0.65;67.74;101958.51;1654777;85;21221;-67
2020/12/22 04:02:27;;;;;;;27.82;12.70;;;;;;;-0.63;67.71;101964.67;1654505;86;21220;-68
2020/12/22 04:04:55;;;;;;;27.22;11.50;;;;;;;-0.65;67.62;101955.81;1654842;85;21815;-69
2020/12/22 04:07:22;;;;;;;29.77;12.80;;;;;;;-0.68;67.56;101962.20;1668957;85;21600;-67
2020/12/22 04:09:50;;;;;;;32.78;12.28;;;;;;;-0.74;67.59;101953.14;1708846;83;21198;-68
2020/12/22 04:12:17;;;;;;;29.82;12.07;;;;;;;-0.72;67.80;101957.09;1708855;84;21873;-67
2020/12/22 04:14:44;;;;;;;37.42;14.28;;;;;;;-0.71;67.73;101953.44;1708921;83;21206;-67
2020/12/22 04:17:12;;;;;;;28.77;10.43;;;;;;;-0.76;67.75;101952.83;1708788;84;21437;-68
2020/12/22 04:19:39;;;;;;;27.93;11.75;;;;;;;-0.76;67.83;101955.52;1708917;83;21464;-68
2020/12/22 04:22:07;;;;;;;29.05;11.55;;;;;;;-0.79;67.81;101955.22;1708972;84;21182;-67
2020/12/22 04:24:34;;;;;;;29.95;12.13;;;;;;;-0.82;67.86;101967.98;1709034;84;21410;-68
2020/12/22 04:27:02;;;;;;;28.92;12.07;;;;;;;-0.85;67.95;101966.33;1709046;84;21389;-66
2020/12/22 04:29:30;;;;;;;26.45;11.03;;;;;;;-0.84;68.00;101972.58;1709093;83;21178;-67
2020/12/22 04:31:58;;;;;;;24.23;9.78;;;;;;;-0.84;68.05;101966.72;1708646;84;21871;-68
2020/12/22 04:34:25;;;;;;;29.40;12.80;;;;;;;-0.83;67.96;101967.59;1708677;84;21326;-67
2020/12/22 04:36:53;;;;;;;30.02;11.57;;;;;;;-0.85;67.97;101973.06;1708187;84;21913;-68
2020/12/22 04:39:20;;;;;;;37.83;15.35;;;;;;;-0.85;68.07;101960.08;1708489;83;21533;-67
2020/12/22 04:41:49;;;;;;;31.50;11.68;;;;;;;-0.86;68.12;101963.25;1708424;84;21467;-67
2020/12/22 04:44:18;;;;;;;28.62;11.33;;;;;;;-0.85;68.20;101954.70;1708917;83;21179;-66
2020/12/22 04:46:50;;;;;;;22.00;9.25;;;;;;;-0.82;68.23;101958.09;1708708;83;21450;-67
2020/12/22 04:49:21;;;;;;;20.23;7.42;;;;;;;-0.80;68.13;101948.58;1708504;83;21465;-67
2020/12/22 04:51:50;;;;;;;17.67;8.23;;;;;;;-0.80;68.07;101944.55;1708451;84;21488;-67
2020/12/22 04:54:19;;;;;;;19.80;9.08;;;;;;;-0.83;68.10;101943.38;1705494;84;21199;-66
2020/12/22 04:56:47;;;;;;;18.45;7.50;;;;;;;-0.80;68.21;101945.89;1708530;84;21318;-67
2020/12/22 04:59:15;;;;;;;23.42;8.73;;;;;;;-0.80;68.22;101937.34;1708437;84;21430;-69
2020/12/22 05:01:44;;;;;;;20.37;7.90;;;;;;;-0.80;68.28;101943.20;1708586;84;21158;-68
2020/12/22 05:04:14;;;;;;;15.15;7.17;;;;;;;-0.82;68.35;101943.28;1680925;84;21928;-67
2020/12/22 05:06:43;;;;;;;16.27;7.00;;;;;;;-0.82;68.40;101945.97;1709952;83;21289;-68
2020/12/22 05:09:10;;;;;;;17.05;7.55;;;;;;;-0.79;68.47;101943.59;1713745;83;21296;-68
2020/12/22 05:11:38;;;;;;;15.50;6.70;;;;;;;-0.76;68.50;101940.72;1714316;83;21193;-68
2020/12/22 05:14:06;;;;;;;13.62;6.28;;;;;;;-0.73;68.45;101937.86;1714308;83;21559;-69
2020/12/22 05:16:37;;;;;;;11.35;5.10;;;;;;;-0.75;68.35;101937.95;1713811;83;21972;-68
2020/12/22 05:19:04;;;;;;;13.25;5.83;;;;;;;-0.79;68.30;101939.08;1714164;83;21436;-69
2020/12/22 05:21:36;;;;;;;10.28;5.15;;;;;;;-0.83;68.46;101937.52;1714169;83;21569;-69
2020/12/22 05:24:04;;;;;;;11.73;5.42;;;;;;;-0.82;68.49;101941.07;1714522;83;21469;-67
2020/12/22 05:26:33;;;;;;;13.00;5.85;;;;;;;-0.84;68.43;101938.94;1714133;83;21476;-69
2020/12/22 05:29:11;;;;;;;11.60;6.28;;;;;;;-0.85;68.54;101936.73;1714150;83;21361;-69
2020/12/22 05:31:47;;;;;;;11.95;5.47;;;;;;;-0.82;68.67;101940.59;1714123;83;21177;-68
2020/12/22 05:34:15;;;;;;;13.70;6.37;;;;;;;-0.80;68.70;101935.99;1714213;83;21430;-67
2020/12/22 05:36:44;;;;;;;13.88;6.42;;;;;;;-0.77;68.66;101938.98;1714249;83;21178;-69
2020/12/22 05:39:14;;;;;;;10.50;5.28;;;;;;;-0.76;68.73;101931.30;1714264;83;21433;-68
2020/12/22 05:41:42;;;;;;;15.05;6.70;;;;;;;-0.76;68.61;101938.03;1713986;83;21882;-70
2020/12/22 05:44:10;;;;;;;11.45;6.42;;;;;;;-0.78;68.71;101936.77;1713961;83;21548;-68
2020/12/22 05:46:38;;;;;;;12.30;5.62;;;;;;;-0.74;68.81;101940.16;1714115;83;21412;-68
2020/12/22 05:49:09;;;;;;;12.85;6.00;;;;;;;-0.71;68.81;101932.77;1714325;83;21368;-67
2020/12/22 05:51:38;;;;;;;14.23;7.22;;;;;;;-0.69;68.77;101930.86;1714112;83;21618;-70
2020/12/22 05:54:07;;;;;;;12.70;5.80;;;;;;;-0.67;68.82;101929.43;1714103;83;21448;-71
2020/12/22 05:56:35;;;;;;;14.58;7.03;;;;;;;-0.65;68.83;101927.08;1714023;83;21551;-68
2020/12/22 05:59:03;;;;;;;10.93;5.08;;;;;;;-0.61;68.83;101925.55;1714064;83;21897;-68
2020/12/22 06:01:35;;;;;;;14.20;7.03;;;;;;;-0.61;68.69;101929.11;1714146;83;21427;-70
2020/12/22 06:04:03;;;;;;;13.38;6.60;;;;;;;-0.64;68.71;101929.29;1714304;83;21401;-69
2020/12/22 06:06:32;;;;;;;11.08;5.40;;;;;;;-0.68;68.70;101933.08;1714013;83;21202;-67
2020/12/22 06:09:00;;;;;;;12.80;6.53;;;;;;;-0.71;68.81;101934.13;1714195;83;21166;-68
2020/12/22 06:11:33;;;;;;;10.88;5.45;;;;;;;-0.73;68.88;101932.00;1714151;83;21169;-69
2020/12/22 06:13:58;;;;;;;13.30;6.25;;;;;;;-0.74;69.03;101927.57;1713881;83;21585;-69
2020/12/22 06:16:26;;;;;;;14.07;6.80;;;;;;;-0.71;69.21;101923.36;1713950;83;21178;-69
2020/12/22 06:18:53;;;;;;;15.88;7.03;;;;;;;-0.65;69.39;101923.03;1714144;83;21786;-69
2020/12/22 06:21:21;;;;;;;14.30;7.45;;;;;;;-0.59;69.41;101931.23;1714053;83;21458;-68
2020/12/22 06:23:50;;;;;;;11.95;5.65;;;;;;;-0.58;69.33;101923.55;1713937;83;21398;-68
2020/12/22 06:26:18;;;;;;;10.80;6.10;;;;;;;-0.58;69.33;101921.34;1713911;83;21850;-67
2020/12/22 06:28:45;;;;;;;13.30;6.25;;;;;;;-0.58;69.31;101920.86;1713907;83;21577;-67
2020/12/22 06:31:18;;;;;;;11.25;5.85;;;;;;;-0.58;69.40;101917.30;1714143;83;21553;-67
2020/12/22 06:33:45;;;;;;;16.30;6.78;;;;;;;-0.59;69.40;101912.39;1714012;83;21428;-68
2020/12/22 06:36:14;;;;;;;19.25;7.67;;;;;;;-0.58;69.52;101914.13;1687677;83;21879;-68
2020/12/22 06:38:51;;;;;;;12.03;5.90;;;;;;;-0.58;69.50;101911.91;1714071;83;21146;-68
2020/12/22 06:41:29;;;;;;;13.25;5.90;;;;;;;-0.58;69.51;101911.44;1714009;83;21426;-68
2020/12/22 06:43:57;;;;;;;15.70;6.90;;;;;;;-0.59;69.64;101906.14;1711909;83;21309;-67
2020/12/22 06:46:37;;;;;;;15.95;6.62;;;;;;;-0.61;69.71;101907.58;1714064;83;21182;-68
2020/12/22 06:49:08;;;;;;;12.33;5.53;;;;;;;-0.59;69.79;101908.35;1711323;83;21301;-69
2020/12/22 06:51:40;;;;;;;9.33;4.87;;;;;;;-0.58;69.73;101908.75;1714213;83;21178;-68
2020/12/22 06:54:20;;;;;;;13.18;5.97;;;;;;;-0.60;69.70;101906.62;1714134;83;21389;-67
2020/12/22 06:56:50;;;;;;;15.78;7.37;;;;;;;-0.63;69.81;101905.45;1714094;83;21313;-67
2020/12/22 06:59:42;;;;;;;12.55;6.28;;;;;;;-0.61;69.93;101901.33;1714057;83;21306;-68
2020/12/22 07:02:33;;;;;;;30.08;12.73;;;;;;;-0.56;69.98;101903.27;1653996;86;21945;-68
2020/12/22 07:05:02;;;;;;;29.52;10.88;;;;;;;-0.56;69.98;101905.48;1707963;83;21449;-68
2020/12/22 07:07:55;;;;;;;43.45;16.12;;;;;;;-0.58;70.07;101900.66;1677894;85;21460;-67
2020/12/22 07:10:23;;;;;;;42.78;15.53;;;;;;;-0.58;70.23;101900.66;1615634;85;21465;-69
2020/12/22 07:12:50;;;;;;;57.95;18.37;;;;;;;-0.57;70.31;101888.94;1708941;84;21473;-69
2020/12/22 07:15:19;;;;;;;54.48;19.25;;;;;;;-0.54;70.41;101891.94;1708696;84;22128;-67
2020/12/22 07:17:50;;;;;;;60.25;18.15;;;;;;;-0.51;70.43;101884.55;1678633;84;21265;-68
2020/12/22 07:20:17;;;;;;;21.45;9.33;;;;;;;-0.43;70.39;101886.78;1708840;83;21445;-69
2020/12/22 07:22:44;;;;;;;56.00;20.90;;;;;;;-0.44;70.23;101883.22;1658028;84;21179;-69
2020/12/22 07:25:12;;;;;;;24.80;11.97;;;;;;;-0.43;70.35;101882.75;1708990;84;21888;-70
2020/12/22 07:27:40;;;;;;;44.90;18.82;;;;;;;-0.40;70.29;101876.70;1680881;84;21159;-69
2020/12/22 07:30:07;;;;;;;51.35;21.90;;;;;;;-0.40;70.21;101875.83;1708961;84;21242;-68
2020/12/22 07:32:34;;;;;;;79.00;27.85;;;;;;;-0.42;70.27;101877.27;1709021;84;21440;-68
2020/12/22 07:35:02;;;;;;;41.25;15.98;;;;;;;-0.41;70.39;101868.23;1708958;84;21229;-69
2020/12/22 07:37:29;;;;;;;23.83;9.83;;;;;;;-0.34;70.38;101870.95;1709040;83;21929;-68
2020/12/22 07:39:56;;;;;;;27.05;12.35;;;;;;;-0.30;70.29;101870.77;1709075;84;21183;-68
2020/12/22 07:42:24;;;;;;;24.65;9.85;;;;;;;-0.27;70.21;101863.84;1708668;84;21596;-68
2020/12/22 07:44:52;;;;;;;33.25;13.10;;;;;;;-0.23;70.15;101866.27;1709090;84;21191;-67
2020/12/22 07:47:19;;;;;;;24.90;12.82;;;;;;;-0.22;69.97;101860.39;1708886;83;21898;-68
2020/12/22 07:49:47;;;;;;;26.60;12.03;;;;;;;-0.22;69.98;101862.61;1709042;84;21329;-68
2020/12/22 07:52:16;;;;;;;27.15;11.63;;;;;;;-0.18;69.90;101864.16;1708984;84;21242;-68
2020/12/22 07:54:57;;;;;;;356.90;94.10;;;;;;;-0.18;69.80;101864.16;1714850;83;21170;-69
2020/12/22 07:57:25;;;;;;;62.13;20.35;;;;;;;-0.17;69.77;101859.63;1720357;83;21344;-68
2020/12/22 08:00:01;;;;;;;83.70;24.67;;;;;;;-0.14;69.73;101858.10;1720219;83;21405;-68
2020/12/22 08:02:31;;;;;;;82.80;26.30;;;;;;;-0.11;69.67;101861.95;1713532;83;21174;-69
2020/12/22 08:05:13;;;;;;;105.22;33.83;;;;;;;-0.06;69.56;101861.20;1709436;83;21309;-68
2020/12/22 08:07:42;;;;;;;49.60;17.52;;;;;;;-0.06;69.41;101855.33;1711094;83;21906;-68
2020/12/22 08:10:14;;;;;;;265.92;79.22;;;;;;;-0.09;69.31;101851.47;1715052;83;21166;-67
2020/12/22 08:12:53;;;;;;;54.55;20.75;;;;;;;-0.11;69.24;101843.97;1715038;83;21213;-68
2020/12/22 08:15:20;;;;;;;39.20;18.05;;;;;;;-0.14;69.39;101853.58;1712719;83;21210;-68
2020/12/22 08:17:50;;;;;;;39.75;16.70;;;;;;;-0.14;69.38;101854.93;1715183;83;21450;-71
2020/12/22 08:20:17;;;;;;;22.25;11.25;;;;;;;-0.13;69.45;101851.75;1673906;85;21342;-68
2020/12/22 08:22:45;;;;;;;22.98;10.25;;;;;;;-0.13;69.42;101857.14;1655110;85;22013;-67
2020/12/22 08:25:12;;;;;;;47.73;18.42;;;;;;;-0.14;69.53;101850.89;1655112;85;21521;-70
2020/12/22 08:27:40;;;;;;;65.37;23.07;;;;;;;-0.09;69.63;101838.48;1654725;86;21214;-69
2020/12/22 08:30:18;;;;;;;41.00;17.85;;;;;;;-0.04;69.59;101841.77;1654890;86;21558;-66
2020/12/22 08:32:46;;;;;;;59.38;20.12;;;;;;;-0.02;69.47;101837.14;1655064;86;21423;-67
2020/12/22 08:35:14;;;;;;;36.80;14.18;;;;;;;-0.03;69.48;101832.23;1654884;86;21460;-68
2020/12/22 08:37:42;;;;;;;17.23;8.43;;;;;;;0.02;69.51;101825.73;1654826;86;21237;-69
2020/12/22 08:40:25;;;;;;;20.82;10.55;;;;;;;0.01;69.41;101827.55;1655069;86;21177;-68
2020/12/22 08:42:53;;;;;;;25.20;9.95;;;;;;;0.00;69.43;101828.52;1654799;86;21423;-67
2020/12/22 08:45:21;;;;;;;32.55;11.85;;;;;;;0.02;69.46;101827.08;1654849;86;21305;-70
2020/12/22 08:47:53;;;;;;;34.35;13.22;;;;;;;0.04;69.46;101822.46;1654739;86;21881;-68
2020/12/22 08:50:21;;;;;;;37.95;15.28;;;;;;;0.05;69.32;101830.45;1654814;85;21976;-69
2020/12/22 08:52:48;;;;;;;45.08;18.37;;;;;;;0.01;69.41;101822.65;1654925;86;21470;-69
2020/12/22 08:55:16;;;;;;;31.52;12.40;;;;;;;0.01;69.50;101819.47;1656656;85;21181;-70
2020/12/22 08:57:44;;;;;;;41.55;14.03;;;;;;;0.02;69.64;101810.91;1658581;85;21376;-69
2020/12/22 09:00:14;;;;;;;32.35;13.00;;;;;;;0.06;69.79;101808.41;1656929;85;21212;-67
2020/12/22 09:02:50;;;;;;;53.42;16.40;;;;;;;0.06;69.66;101801.67;1657124;85;21821;-69
2020/12/22 09:05:19;;;;;;;39.05;13.88;;;;;;;0.07;69.75;101796.67;1655951;85;21551;-68
2020/12/22 09:07:59;;;;;;;39.05;13.18;;;;;;;0.14;69.90;101796.19;1669881;85;21198;-70
2020/12/22 09:10:26;;;;;;;67.82;20.70;;;;;;;0.20;69.83;101790.41;1664255;85;21875;-69
2020/12/22 09:12:54;;;;;;;28.67;10.10;;;;;;;0.30;69.72;101790.21;1685770;83;21265;-69
2020/12/22 09:15:21;;;;;;;34.92;13.00;;;;;;;0.37;69.53;101786.64;1684546;84;21866;-68
2020/12/22 09:17:48;;;;;;;42.80;13.65;;;;;;;0.40;69.38;101789.63;1720494;83;21146;-69
2020/12/22 09:20:21;;;;;;;63.75;18.45;;;;;;;0.45;69.42;101785.66;1715582;83;21907;-68
2020/12/22 09:22:48;;;;;;;41.65;13.85;;;;;;;0.52;69.26;101783.44;1707880;84;21187;-67
2020/12/22 09:25:15;;;;;;;37.13;14.03;;;;;;;0.54;69.10;101786.90;1707918;83;21882;-70
2020/12/22 09:27:44;;;;;;;36.98;12.73;;;;;;;0.55;68.91;101778.70;1711951;83;21161;-66
2020/12/22 09:30:13;;;;;;;38.35;12.35;;;;;;;0.56;68.84;101779.09;1708370;83;21159;-69
2020/12/22 09:32:43;;;;;;;33.40;12.73;;;;;;;0.58;68.78;101776.30;1713966;82;21412;-68
2020/12/22 09:35:11;;;;;;;25.55;8.95;;;;;;;0.60;68.78;101775.71;1708106;82;21166;-72
2020/12/22 09:37:38;;;;;;;37.25;13.72;;;;;;;0.64;68.68;101774.06;1717580;82;21912;-69
2020/12/22 09:40:06;;;;;;;21.73;9.20;;;;;;;0.68;68.56;101769.85;1709077;82;21978;-69
2020/12/22 09:42:33;;;;;;;23.42;10.35;;;;;;;0.68;68.55;101757.23;1710916;81;22199;-67
2020/12/22 09:45:00;;;;;;;41.68;13.03;;;;;;;0.71;68.55;101759.72;1725815;82;21250;-68
2020/12/22 09:47:28;;;;;;;58.75;17.95;;;;;;;0.71;68.42;101761.55;1737570;82;21204;-70
2020/12/22 09:49:56;;;;;;;42.80;13.28;;;;;;;0.69;68.37;101758.95;1712300;82;21738;-70
2020/12/22 09:52:23;;;;;;;58.25;18.12;;;;;;;0.67;68.41;101750.10;1722046;82;21463;-67
2020/12/22 09:54:51;;;;;;;44.63;14.20;;;;;;;0.63;68.46;101743.15;1708971;82;21849;-67
2020/12/22 09:57:18;;;;;;;28.42;10.23;;;;;;;0.60;68.67;101740.66;1719679;82;21787;-66
2020/12/22 09:59:48;;;;;;;41.70;14.25;;;;;;;0.60;68.65;101740.66;1710972;83;21119;-71
2020/12/22 10:02:16;;;;;;;40.23;14.73;;;;;;;0.56;68.65;101733.73;1711365;83;21226;-68
2020/12/22 10:04:43;;;;;;;30.52;13.25;;;;;;;0.56;68.88;101736.42;1709113;83;21198;-71
2020/12/22 10:07:11;;;;;;;29.37;12.47;;;;;;;0.56;69.00;101729.69;1710215;83;21379;-67
2020/12/22 10:09:46;;;;;;;52.85;15.70;;;;;;;0.55;69.24;101723.42;1713117;83;21143;-67
2020/12/22 10:12:17;;;;;;;74.27;20.12;;;;;;;0.58;69.28;101729.09;1717265;83;21883;-66
2020/12/22 10:14:48;;;;;;;68.10;19.17;;;;;;;0.54;69.38;101720.83;1697142;84;21935;-71
2020/12/22 10:17:15;;;;;;;57.40;18.30;;;;;;;0.56;69.55;101722.45;1697629;84;21228;-67
2020/12/22 10:19:42;;;;;;;87.40;19.90;;;;;;;0.59;69.52;101714.65;1700023;83;21901;-63
2020/12/22 10:22:10;;;;;;;50.63;15.30;;;;;;;0.63;69.52;101709.44;1706554;83;21316;-61
2020/12/22 10:24:38;;;;;;;64.30;15.48;;;;;;;0.66;69.55;101704.34;1696961;84;21201;-61
2020/12/22 10:27:05;;;;;;;84.80;20.75;;;;;;;0.68;69.76;101707.81;1707004;82;21396;-64
2020/12/22 10:29:33;;;;;;;45.78;14.38;;;;;;;0.71;69.83;101707.61;1721329;81;21762;-62
2020/12/22 10:32:00;;;;;;;130.95;33.98;;;;;;;0.77;69.84;101704.02;1683550;83;21373;-62
2020/12/22 10:34:28;;;;;;;71.17;21.95;;;;;;;0.85;69.62;101694.92;1695715;83;21346;-63
2020/12/22 10:36:56;;;;;;;36.50;13.83;;;;;;;0.89;69.68;101691.05;1697713;83;21418;-62
2020/12/22 10:39:24;;;;;;;46.05;16.65;;;;;;;0.95;69.42;101682.53;1662533;85;21979;-62
2020/12/22 10:41:51;;;;;;;42.93;17.35;;;;;;;0.98;69.27;101682.81;1669586;84;21956;-64
2020/12/22 10:44:19;;;;;;;112.68;32.08;;;;;;;1.05;69.28;101681.91;1654443;84;21404;-63
2020/12/22 10:46:47;;;;;;;76.62;24.80;;;;;;;1.10;69.15;101675.70;1671880;84;21172;-63
2020/12/22 10:49:15;;;;;;;64.77;20.88;;;;;;;1.16;69.01;101673.94;1658888;84;21203;-64
2020/12/22 10:51:42;;;;;;;103.20;29.15;;;;;;;1.21;68.87;101677.17;1675848;84;21300;-63
2020/12/22 10:54:10;;;;;;;66.97;21.87;;;;;;;1.26;68.72;101675.02;1662615;84;21911;-62
2020/12/22 10:56:37;;;;;;;69.80;24.35;;;;;;;1.28;68.52;101675.78;1678492;84;21976;-62
2020/12/22 10:59:05;;;;;;;110.00;28.07;;;;;;;1.27;68.36;101660.55;1685891;83;21837;-61
2020/12/22 11:01:39;;;;;;;119.87;33.35;;;;;;;1.26;68.37;101665.09;1695117;83;21980;-61
2020/12/22 11:04:07;;;;;;;55.12;17.92;;;;;;;1.25;68.35;101655.26;1642698;86;21181;-61
2020/12/22 11:09:02;;;;;;;93.78;32.75;;;;;;;1.21;68.42;101653.74;1663252;85;21233;-64
2020/12/22 11:11:30;;;;;;;57.60;25.30;;;;;;;1.23;68.50;101647.75;1678772;83;21353;-63
2020/12/22 11:13:58;;;;;;;32.40;14.80;;;;;;;1.26;68.40;101655.64;1643847;86;21456;-64
2020/12/22 11:16:27;;;;;;;48.35;19.10;;;;;;;1.25;68.25;101655.74;1676852;84;21572;-62
2020/12/22 11:18:54;;;;;;;45.88;16.25;;;;;;;1.20;68.25;101661.95;1684139;84;21844;-67
2020/12/22 11:21:24;;;;;;;45.90;19.98;;;;;;;1.15;68.42;101646.07;1696672;84;21952;-66
2020/12/22 11:23:52;;;;;;;44.38;19.65;;;;;;;1.17;68.54;101653.58;1709515;83;21906;-67
2020/12/22 11:26:20;;;;;;;47.78;21.20;;;;;;;1.21;68.60;101644.78;1700014;83;21558;-67